sensor_id;sensor_type;location;lat;lon;timestamp;P1;durP1;ratioP1;P2;durP2;ratioP2
76867;SDS011;66168;45.478;11.060;2023-12-04T00:01:43;5.50;;;3.80;;
76867;SDS011;66168;45.478;11.060;2023-12-04T00:04:12;4.50;;;3.30;;
76867;SDS011;66168;45.478;11.060;2023-12-04T00:06:40;6.10;;;3.50;;
76867;SDS011;66168;45.478;11.060;2023-12-04T00:09:08;4.80;;;3.50;;
76867;SDS011;66168;45.478;11.060;2023-12-04T00:11:35;4.60;;;3.50;;
76867;SDS011;66168;45.478;11.060;2023-12-04T00:14:02;5.40;;;4.00;;
76867;SDS011;66168;45.478;11.060;2023-12-04T00:16:29;5.90;;;3.20;;
76867;SDS011;66168;45.478;11.060;2023-12-04T00:18:56;4.70;;;3.20;;
76867;SDS011;66168;45.478;11.060;2023-12-04T00:21:23;4.60;;;3.40;;
76867;SDS011;66168;45.478;11.060;2023-12-04T00:23:50;5.40;;;3.30;;
76867;SDS011;66168;45.478;11.060;2023-12-04T00:26:17;3.90;;;3.40;;
76867;SDS011;66168;45.478;11.060;2023-12-04T00:28:44;4.20;;;3.40;;
76867;SDS011;66168;45.478;11.060;2023-12-04T00:31:10;4.60;;;3.30;;
76867;SDS011;66168;45.478;11.060;2023-12-04T00:33:37;6.40;;;3.80;;
76867;SDS011;66168;45.478;11.060;2023-12-04T00:36:04;4.90;;;3.60;;
76867;SDS011;66168;45.478;11.060;2023-12-04T00:38:31;4.80;;;3.50;;
76867;SDS011;66168;45.478;11.060;2023-12-04T00:40:58;6.00;;;3.80;;
76867;SDS011;66168;45.478;11.060;2023-12-04T00:43:25;5.00;;;3.50;;
76867;SDS011;66168;45.478;11.060;2023-12-04T00:45:51;6.70;;;3.80;;
76867;SDS011;66168;45.478;11.060;2023-12-04T00:48:18;4.70;;;3.50;;
76867;SDS011;66168;45.478;11.060;2023-12-04T00:50:45;4.80;;;3.60;;
76867;SDS011;66168;45.478;11.060;2023-12-04T00:53:12;5.80;;;3.40;;
76867;SDS011;66168;45.478;11.060;2023-12-04T00:55:39;4.10;;;3.00;;
76867;SDS011;66168;45.478;11.060;2023-12-04T00:58:06;4.50;;;3.40;;
76867;SDS011;66168;45.478;11.060;2023-12-04T01:00:34;4.90;;;3.40;;
76867;SDS011;66168;45.478;11.060;2023-12-04T01:03:00;6.50;;;3.70;;
76867;SDS011;66168;45.478;11.060;2023-12-04T01:05:27;5.60;;;3.60;;
76867;SDS011;66168;45.478;11.060;2023-12-04T01:07:55;5.70;;;3.60;;
76867;SDS011;66168;45.478;11.060;2023-12-04T01:10:22;4.20;;;3.10;;
76867;SDS011;66168;45.478;11.060;2023-12-04T01:12:49;3.60;;;3.20;;
76867;SDS011;66168;45.478;11.060;2023-12-04T01:15:16;5.80;;;3.40;;
76867;SDS011;66168;45.478;11.060;2023-12-04T01:17:43;3.80;;;3.00;;
76867;SDS011;66168;45.478;11.060;2023-12-04T01:20:10;4.40;;;3.50;;
76867;SDS011;66168;45.478;11.060;2023-12-04T01:22:37;3.90;;;3.10;;
76867;SDS011;66168;45.478;11.060;2023-12-04T01:25:04;5.00;;;3.40;;
76867;SDS011;66168;45.478;11.060;2023-12-04T01:27:31;5.30;;;3.10;;
76867;SDS011;66168;45.478;11.060;2023-12-04T01:29:58;4.30;;;3.10;;
76867;SDS011;66168;45.478;11.060;2023-12-04T01:32:25;3.90;;;3.10;;
76867;SDS011;66168;45.478;11.060;2023-12-04T01:34:52;4.70;;;3.50;;
76867;SDS011;66168;45.478;11.060;2023-12-04T01:37:19;5.10;;;3.30;;
76867;SDS011;66168;45.478;11.060;2023-12-04T01:39:46;5.60;;;4.10;;
76867;SDS011;66168;45.478;11.060;2023-12-04T01:42:13;4.00;;;3.30;;
76867;SDS011;66168;45.478;11.060;2023-12-04T01:44:40;5.50;;;4.10;;
76867;SDS011;66168;45.478;11.060;2023-12-04T01:47:06;4.60;;;3.70;;
76867;SDS011;66168;45.478;11.060;2023-12-04T01:49:34;5.80;;;3.60;;
76867;SDS011;66168;45.478;11.060;2023-12-04T01:52:01;5.10;;;3.50;;
76867;SDS011;66168;45.478;11.060;2023-12-04T01:54:29;5.30;;;3.90;;
76867;SDS011;66168;45.478;11.060;2023-12-04T01:56:57;6.30;;;4.20;;
76867;SDS011;66168;45.478;11.060;2023-12-04T01:59:25;5.60;;;3.90;;
76867;SDS011;66168;45.478;11.060;2023-12-04T02:01:52;5.60;;;4.00;;
76867;SDS011;66168;45.478;11.060;2023-12-04T02:04:20;5.60;;;4.40;;
76867;SDS011;66168;45.478;11.060;2023-12-04T02:06:47;4.90;;;3.60;;
76867;SDS011;66168;45.478;11.060;2023-12-04T02:09:14;6.20;;;4.20;;
76867;SDS011;66168;45.478;11.060;2023-12-04T02:11:42;7.40;;;4.20;;
76867;SDS011;66168;45.478;11.060;2023-12-04T02:14:09;6.10;;;4.20;;
76867;SDS011;66168;45.478;11.060;2023-12-04T02:16:38;5.20;;;3.90;;
76867;SDS011;66168;45.478;11.060;2023-12-04T02:19:07;6.90;;;4.30;;
76867;SDS011;66168;45.478;11.060;2023-12-04T02:21:36;7.20;;;4.60;;
76867;SDS011;66168;45.478;11.060;2023-12-04T02:24:03;6.80;;;4.40;;
76867;SDS011;66168;45.478;11.060;2023-12-04T02:26:34;5.60;;;4.10;;
76867;SDS011;66168;45.478;11.060;2023-12-04T02:29:11;5.30;;;4.00;;
76867;SDS011;66168;45.478;11.060;2023-12-04T02:31:41;6.30;;;4.20;;
76867;SDS011;66168;45.478;11.060;2023-12-04T02:34:09;5.70;;;4.30;;
76867;SDS011;66168;45.478;11.060;2023-12-04T02:36:40;6.20;;;4.30;;
76867;SDS011;66168;45.478;11.060;2023-12-04T02:39:08;6.10;;;4.60;;
76867;SDS011;66168;45.478;11.060;2023-12-04T02:41:36;6.50;;;4.20;;
76867;SDS011;66168;45.478;11.060;2023-12-04T02:44:03;5.80;;;4.30;;
76867;SDS011;66168;45.478;11.060;2023-12-04T02:46:30;6.10;;;4.00;;
76867;SDS011;66168;45.478;11.060;2023-12-04T02:48:57;6.00;;;4.00;;
76867;SDS011;66168;45.478;11.060;2023-12-04T02:51:24;5.80;;;4.40;;
76867;SDS011;66168;45.478;11.060;2023-12-04T02:53:53;5.60;;;3.80;;
76867;SDS011;66168;45.478;11.060;2023-12-04T02:56:20;6.60;;;3.90;;
76867;SDS011;66168;45.478;11.060;2023-12-04T02:58:46;6.40;;;4.10;;
76867;SDS011;66168;45.478;11.060;2023-12-04T03:01:13;5.10;;;3.80;;
76867;SDS011;66168;45.478;11.060;2023-12-04T03:03:40;4.80;;;3.30;;
76867;SDS011;66168;45.478;11.060;2023-12-04T03:06:07;7.10;;;4.00;;
76867;SDS011;66168;45.478;11.060;2023-12-04T03:08:35;5.60;;;4.20;;
76867;SDS011;66168;45.478;11.060;2023-12-04T03:11:02;5.70;;;4.10;;
76867;SDS011;66168;45.478;11.060;2023-12-04T03:13:30;5.70;;;4.20;;
76867;SDS011;66168;45.478;11.060;2023-12-04T03:15:57;5.20;;;3.60;;
76867;SDS011;66168;45.478;11.060;2023-12-04T03:18:24;5.50;;;3.60;;
76867;SDS011;66168;45.478;11.060;2023-12-04T03:20:52;5.60;;;4.00;;
76867;SDS011;66168;45.478;11.060;2023-12-04T03:23:19;6.10;;;4.20;;
76867;SDS011;66168;45.478;11.060;2023-12-04T03:25:46;5.80;;;4.00;;
76867;SDS011;66168;45.478;11.060;2023-12-04T03:28:13;6.00;;;4.10;;
76867;SDS011;66168;45.478;11.060;2023-12-04T03:30:42;6.00;;;3.90;;
76867;SDS011;66168;45.478;11.060;2023-12-04T03:33:12;5.20;;;3.70;;
76867;SDS011;66168;45.478;11.060;2023-12-04T03:35:39;5.40;;;3.80;;
76867;SDS011;66168;45.478;11.060;2023-12-04T03:38:06;4.50;;;3.50;;
76867;SDS011;66168;45.478;11.060;2023-12-04T03:40:33;6.40;;;3.70;;
76867;SDS011;66168;45.478;11.060;2023-12-04T03:43:00;5.50;;;4.00;;
76867;SDS011;66168;45.478;11.060;2023-12-04T03:45:27;5.90;;;3.70;;
76867;SDS011;66168;45.478;11.060;2023-12-04T03:47:54;5.90;;;3.70;;
76867;SDS011;66168;45.478;11.060;2023-12-04T03:50:21;4.90;;;3.20;;
76867;SDS011;66168;45.478;11.060;2023-12-04T03:52:48;5.60;;;3.50;;
76867;SDS011;66168;45.478;11.060;2023-12-04T03:55:15;7.10;;;3.60;;
76867;SDS011;66168;45.478;11.060;2023-12-04T03:57:42;6.00;;;3.40;;
76867;SDS011;66168;45.478;11.060;2023-12-04T04:00:10;5.90;;;3.80;;
76867;SDS011;66168;45.478;11.060;2023-12-04T04:02:38;5.40;;;3.80;;
76867;SDS011;66168;45.478;11.060;2023-12-04T04:05:06;5.60;;;3.50;;
76867;SDS011;66168;45.478;11.060;2023-12-04T04:07:33;5.10;;;3.30;;
76867;SDS011;66168;45.478;11.060;2023-12-04T04:10:00;4.80;;;3.20;;
76867;SDS011;66168;45.478;11.060;2023-12-04T04:12:27;6.10;;;3.60;;
76867;SDS011;66168;45.478;11.060;2023-12-04T04:14:54;5.20;;;3.70;;
76867;SDS011;66168;45.478;11.060;2023-12-04T04:17:21;5.70;;;3.90;;
76867;SDS011;66168;45.478;11.060;2023-12-04T04:19:48;5.30;;;3.90;;
76867;SDS011;66168;45.478;11.060;2023-12-04T04:22:16;7.30;;;3.80;;
76867;SDS011;66168;45.478;11.060;2023-12-04T04:24:43;5.90;;;3.80;;
76867;SDS011;66168;45.478;11.060;2023-12-04T04:27:10;6.70;;;4.10;;
76867;SDS011;66168;45.478;11.060;2023-12-04T04:29:37;5.80;;;4.10;;
76867;SDS011;66168;45.478;11.060;2023-12-04T04:32:04;5.80;;;4.00;;
76867;SDS011;66168;45.478;11.060;2023-12-04T04:34:32;4.50;;;3.70;;
76867;SDS011;66168;45.478;11.060;2023-12-04T04:36:59;5.60;;;3.90;;
76867;SDS011;66168;45.478;11.060;2023-12-04T04:39:26;9.10;;;4.30;;
76867;SDS011;66168;45.478;11.060;2023-12-04T04:41:56;8.20;;;5.00;;
76867;SDS011;66168;45.478;11.060;2023-12-04T04:44:23;8.40;;;4.50;;
76867;SDS011;66168;45.478;11.060;2023-12-04T04:46:53;9.10;;;4.50;;
76867;SDS011;66168;45.478;11.060;2023-12-04T04:49:20;7.30;;;4.50;;
76867;SDS011;66168;45.478;11.060;2023-12-04T04:51:47;7.90;;;4.50;;
76867;SDS011;66168;45.478;11.060;2023-12-04T04:54:14;7.00;;;4.80;;
76867;SDS011;66168;45.478;11.060;2023-12-04T04:56:41;6.20;;;3.50;;
76867;SDS011;66168;45.478;11.060;2023-12-04T04:59:08;5.90;;;4.10;;
76867;SDS011;66168;45.478;11.060;2023-12-04T05:01:35;6.00;;;4.00;;
76867;SDS011;66168;45.478;11.060;2023-12-04T05:04:03;5.80;;;4.10;;
76867;SDS011;66168;45.478;11.060;2023-12-04T05:06:30;6.30;;;4.50;;
76867;SDS011;66168;45.478;11.060;2023-12-04T05:08:57;6.00;;;4.10;;
76867;SDS011;66168;45.478;11.060;2023-12-04T05:11:24;5.80;;;3.50;;
76867;SDS011;66168;45.478;11.060;2023-12-04T05:13:51;8.40;;;4.60;;
76867;SDS011;66168;45.478;11.060;2023-12-04T05:16:18;4.60;;;3.40;;
76867;SDS011;66168;45.478;11.060;2023-12-04T05:18:45;5.70;;;3.70;;
76867;SDS011;66168;45.478;11.060;2023-12-04T05:21:12;6.50;;;4.20;;
76867;SDS011;66168;45.478;11.060;2023-12-04T05:23:39;5.60;;;4.20;;
76867;SDS011;66168;45.478;11.060;2023-12-04T05:26:07;9.00;;;5.10;;
76867;SDS011;66168;45.478;11.060;2023-12-04T05:28:34;5.30;;;4.00;;
76867;SDS011;66168;45.478;11.060;2023-12-04T05:31:01;6.20;;;3.80;;
76867;SDS011;66168;45.478;11.060;2023-12-04T05:33:29;5.60;;;4.00;;
76867;SDS011;66168;45.478;11.060;2023-12-04T05:35:56;6.90;;;3.80;;
76867;SDS011;66168;45.478;11.060;2023-12-04T05:38:23;6.30;;;4.00;;
76867;SDS011;66168;45.478;11.060;2023-12-04T05:40:50;7.20;;;4.10;;
76867;SDS011;66168;45.478;11.060;2023-12-04T05:43:17;8.30;;;4.20;;
76867;SDS011;66168;45.478;11.060;2023-12-04T05:45:45;7.00;;;4.20;;
76867;SDS011;66168;45.478;11.060;2023-12-04T05:48:14;7.30;;;4.20;;
76867;SDS011;66168;45.478;11.060;2023-12-04T05:50:40;7.80;;;4.80;;
76867;SDS011;66168;45.478;11.060;2023-12-04T05:53:07;9.30;;;4.90;;
76867;SDS011;66168;45.478;11.060;2023-12-04T05:55:34;11.20;;;4.70;;
76867;SDS011;66168;45.478;11.060;2023-12-04T05:58:01;9.10;;;4.70;;
76867;SDS011;66168;45.478;11.060;2023-12-04T06:00:28;8.00;;;4.00;;
76867;SDS011;66168;45.478;11.060;2023-12-04T06:02:56;9.20;;;5.30;;
76867;SDS011;66168;45.478;11.060;2023-12-04T06:05:23;6.70;;;4.90;;
76867;SDS011;66168;45.478;11.060;2023-12-04T06:07:50;7.30;;;4.60;;
76867;SDS011;66168;45.478;11.060;2023-12-04T06:10:17;9.60;;;4.60;;
76867;SDS011;66168;45.478;11.060;2023-12-04T06:12:45;6.70;;;4.30;;
76867;SDS011;66168;45.478;11.060;2023-12-04T06:15:11;6.20;;;4.20;;
76867;SDS011;66168;45.478;11.060;2023-12-04T06:17:39;5.80;;;4.20;;
76867;SDS011;66168;45.478;11.060;2023-12-04T06:20:06;5.70;;;3.90;;
76867;SDS011;66168;45.478;11.060;2023-12-04T06:22:34;6.00;;;4.60;;
76867;SDS011;66168;45.478;11.060;2023-12-04T06:25:02;7.00;;;3.90;;
76867;SDS011;66168;45.478;11.060;2023-12-04T06:27:29;7.10;;;4.10;;
76867;SDS011;66168;45.478;11.060;2023-12-04T06:29:56;8.00;;;4.70;;
76867;SDS011;66168;45.478;11.060;2023-12-04T06:32:24;6.40;;;4.30;;
76867;SDS011;66168;45.478;11.060;2023-12-04T06:34:52;8.50;;;4.50;;
76867;SDS011;66168;45.478;11.060;2023-12-04T06:37:22;6.60;;;4.50;;
76867;SDS011;66168;45.478;11.060;2023-12-04T06:39:49;6.10;;;4.30;;
76867;SDS011;66168;45.478;11.060;2023-12-04T06:42:19;6.70;;;4.50;;
76867;SDS011;66168;45.478;11.060;2023-12-04T06:44:47;5.20;;;4.00;;
76867;SDS011;66168;45.478;11.060;2023-12-04T06:47:14;5.70;;;4.40;;
76867;SDS011;66168;45.478;11.060;2023-12-04T06:49:45;8.70;;;5.10;;
76867;SDS011;66168;45.478;11.060;2023-12-04T06:52:12;7.90;;;5.30;;
76867;SDS011;66168;45.478;11.060;2023-12-04T06:54:38;8.90;;;5.20;;
76867;SDS011;66168;45.478;11.060;2023-12-04T06:57:05;7.80;;;5.40;;
76867;SDS011;66168;45.478;11.060;2023-12-04T06:59:33;8.60;;;4.90;;
76867;SDS011;66168;45.478;11.060;2023-12-04T07:01:59;6.90;;;4.60;;
76867;SDS011;66168;45.478;11.060;2023-12-04T07:04:26;7.20;;;4.50;;
76867;SDS011;66168;45.478;11.060;2023-12-04T07:06:53;6.10;;;3.90;;
76867;SDS011;66168;45.478;11.060;2023-12-04T07:09:21;7.10;;;4.40;;
76867;SDS011;66168;45.478;11.060;2023-12-04T07:11:48;8.60;;;4.90;;
76867;SDS011;66168;45.478;11.060;2023-12-04T07:14:15;7.40;;;5.20;;
76867;SDS011;66168;45.478;11.060;2023-12-04T07:16:42;6.20;;;4.00;;
76867;SDS011;66168;45.478;11.060;2023-12-04T07:19:10;8.50;;;5.10;;
76867;SDS011;66168;45.478;11.060;2023-12-04T07:21:38;8.70;;;5.70;;
76867;SDS011;66168;45.478;11.060;2023-12-04T07:24:06;8.40;;;5.80;;
76867;SDS011;66168;45.478;11.060;2023-12-04T07:26:34;7.20;;;5.10;;
76867;SDS011;66168;45.478;11.060;2023-12-04T07:29:02;13.50;;;8.10;;
76867;SDS011;66168;45.478;11.060;2023-12-04T07:31:29;9.10;;;6.90;;
76867;SDS011;66168;45.478;11.060;2023-12-04T07:33:57;7.90;;;5.10;;
76867;SDS011;66168;45.478;11.060;2023-12-04T07:36:27;6.70;;;4.70;;
76867;SDS011;66168;45.478;11.060;2023-12-04T07:38:55;8.00;;;5.90;;
76867;SDS011;66168;45.478;11.060;2023-12-04T07:41:21;7.50;;;6.00;;
76867;SDS011;66168;45.478;11.060;2023-12-04T07:43:48;7.70;;;5.00;;
76867;SDS011;66168;45.478;11.060;2023-12-04T07:46:16;9.00;;;5.20;;
76867;SDS011;66168;45.478;11.060;2023-12-04T07:48:43;8.00;;;4.70;;
76867;SDS011;66168;45.478;11.060;2023-12-04T07:51:10;7.60;;;4.60;;
76867;SDS011;66168;45.478;11.060;2023-12-04T07:53:38;8.70;;;4.50;;
76867;SDS011;66168;45.478;11.060;2023-12-04T07:56:05;7.40;;;4.50;;
76867;SDS011;66168;45.478;11.060;2023-12-04T07:58:32;7.30;;;4.80;;
76867;SDS011;66168;45.478;11.060;2023-12-04T08:00:59;9.50;;;5.90;;
76867;SDS011;66168;45.478;11.060;2023-12-04T08:03:27;8.30;;;5.70;;
76867;SDS011;66168;45.478;11.060;2023-12-04T08:05:54;6.70;;;4.40;;
76867;SDS011;66168;45.478;11.060;2023-12-04T08:08:21;7.90;;;4.50;;
76867;SDS011;66168;45.478;11.060;2023-12-04T08:10:48;10.90;;;4.30;;
76867;SDS011;66168;45.478;11.060;2023-12-04T08:13:15;7.30;;;5.00;;
76867;SDS011;66168;45.478;11.060;2023-12-04T08:15:43;8.80;;;5.40;;
76867;SDS011;66168;45.478;11.060;2023-12-04T08:18:11;6.70;;;5.20;;
76867;SDS011;66168;45.478;11.060;2023-12-04T08:20:38;7.60;;;4.80;;
76867;SDS011;66168;45.478;11.060;2023-12-04T08:23:07;7.30;;;4.90;;
76867;SDS011;66168;45.478;11.060;2023-12-04T08:25:35;5.80;;;4.30;;
76867;SDS011;66168;45.478;11.060;2023-12-04T08:28:04;7.10;;;4.80;;
76867;SDS011;66168;45.478;11.060;2023-12-04T08:30:32;7.30;;;4.50;;
76867;SDS011;66168;45.478;11.060;2023-12-04T08:32:59;8.90;;;5.00;;
76867;SDS011;66168;45.478;11.060;2023-12-04T08:35:26;7.30;;;4.90;;
76867;SDS011;66168;45.478;11.060;2023-12-04T08:37:53;6.90;;;4.80;;
76867;SDS011;66168;45.478;11.060;2023-12-04T08:40:20;7.90;;;5.50;;
76867;SDS011;66168;45.478;11.060;2023-12-04T08:42:49;8.10;;;5.90;;
76867;SDS011;66168;45.478;11.060;2023-12-04T08:45:16;8.80;;;5.20;;
76867;SDS011;66168;45.478;11.060;2023-12-04T08:47:45;5.60;;;4.20;;
76867;SDS011;66168;45.478;11.060;2023-12-04T08:50:13;8.40;;;5.80;;
76867;SDS011;66168;45.478;11.060;2023-12-04T08:52:39;10.70;;;7.00;;
76867;SDS011;66168;45.478;11.060;2023-12-04T08:55:09;9.20;;;6.20;;
76867;SDS011;66168;45.478;11.060;2023-12-04T08:57:37;9.40;;;6.90;;
76867;SDS011;66168;45.478;11.060;2023-12-04T09:00:04;8.60;;;5.60;;
76867;SDS011;66168;45.478;11.060;2023-12-04T09:02:31;9.60;;;6.10;;
76867;SDS011;66168;45.478;11.060;2023-12-04T09:04:59;8.00;;;5.30;;
76867;SDS011;66168;45.478;11.060;2023-12-04T09:07:26;9.00;;;6.00;;
76867;SDS011;66168;45.478;11.060;2023-12-04T09:10:14;8.20;;;4.90;;
76867;SDS011;66168;45.478;11.060;2023-12-04T09:13:00;8.40;;;5.50;;
76867;SDS011;66168;45.478;11.060;2023-12-04T09:15:27;8.60;;;5.40;;
76867;SDS011;66168;45.478;11.060;2023-12-04T09:17:54;10.00;;;6.20;;
76867;SDS011;66168;45.478;11.060;2023-12-04T09:20:22;14.90;;;7.10;;
76867;SDS011;66168;45.478;11.060;2023-12-04T09:22:49;10.20;;;7.20;;
76867;SDS011;66168;45.478;11.060;2023-12-04T09:25:23;11.90;;;7.30;;
76867;SDS011;66168;45.478;11.060;2023-12-04T09:27:49;12.30;;;8.50;;
76867;SDS011;66168;45.478;11.060;2023-12-04T09:30:16;12.30;;;7.80;;
76867;SDS011;66168;45.478;11.060;2023-12-04T09:32:44;11.90;;;9.00;;
76867;SDS011;66168;45.478;11.060;2023-12-04T09:35:12;7.40;;;5.70;;
76867;SDS011;66168;45.478;11.060;2023-12-04T09:37:39;11.90;;;8.00;;
76867;SDS011;66168;45.478;11.060;2023-12-04T09:40:06;10.90;;;7.70;;
76867;SDS011;66168;45.478;11.060;2023-12-04T09:42:34;8.10;;;5.90;;
76867;SDS011;66168;45.478;11.060;2023-12-04T09:45:02;8.90;;;6.30;;
76867;SDS011;66168;45.478;11.060;2023-12-04T09:47:30;12.70;;;6.40;;
76867;SDS011;66168;45.478;11.060;2023-12-04T09:50:00;11.00;;;7.00;;
76867;SDS011;66168;45.478;11.060;2023-12-04T09:52:27;10.50;;;6.60;;
76867;SDS011;66168;45.478;11.060;2023-12-04T09:54:55;9.30;;;6.20;;
76867;SDS011;66168;45.478;11.060;2023-12-04T09:57:23;7.60;;;5.30;;
76867;SDS011;66168;45.478;11.060;2023-12-04T09:59:51;48.40;;;9.80;;
76867;SDS011;66168;45.478;11.060;2023-12-04T10:02:19;16.70;;;11.40;;
76867;SDS011;66168;45.478;11.060;2023-12-04T10:04:46;9.70;;;5.90;;
76867;SDS011;66168;45.478;11.060;2023-12-04T10:07:14;9.30;;;5.90;;
76867;SDS011;66168;45.478;11.060;2023-12-04T10:09:41;8.10;;;4.90;;
76867;SDS011;66168;45.478;11.060;2023-12-04T10:12:08;7.90;;;5.00;;
76867;SDS011;66168;45.478;11.060;2023-12-04T10:14:36;10.60;;;5.80;;
76867;SDS011;66168;45.478;11.060;2023-12-04T10:17:16;9.30;;;5.60;;
76867;SDS011;66168;45.478;11.060;2023-12-04T10:19:46;8.90;;;5.70;;
76867;SDS011;66168;45.478;11.060;2023-12-04T10:22:13;6.90;;;5.10;;
76867;SDS011;66168;45.478;11.060;2023-12-04T10:24:40;8.50;;;5.60;;
76867;SDS011;66168;45.478;11.060;2023-12-04T10:27:08;7.90;;;4.90;;
76867;SDS011;66168;45.478;11.060;2023-12-04T10:29:46;9.90;;;6.70;;
76867;SDS011;66168;45.478;11.060;2023-12-04T10:32:17;9.90;;;5.90;;
76867;SDS011;66168;45.478;11.060;2023-12-04T10:34:48;9.70;;;5.30;;
76867;SDS011;66168;45.478;11.060;2023-12-04T10:37:15;14.60;;;9.10;;
76867;SDS011;66168;45.478;11.060;2023-12-04T10:39:50;7.80;;;5.80;;
76867;SDS011;66168;45.478;11.060;2023-12-04T10:42:25;7.70;;;5.30;;
76867;SDS011;66168;45.478;11.060;2023-12-04T10:44:57;7.60;;;6.00;;
76867;SDS011;66168;45.478;11.060;2023-12-04T10:47:26;7.20;;;5.40;;
76867;SDS011;66168;45.478;11.060;2023-12-04T10:49:55;12.30;;;7.50;;
76867;SDS011;66168;45.478;11.060;2023-12-04T10:52:23;10.60;;;6.50;;
76867;SDS011;66168;45.478;11.060;2023-12-04T10:54:50;11.90;;;7.40;;
76867;SDS011;66168;45.478;11.060;2023-12-04T10:57:21;51.00;;;24.90;;
76867;SDS011;66168;45.478;11.060;2023-12-04T10:59:58;19.00;;;11.50;;
76867;SDS011;66168;45.478;11.060;2023-12-04T11:02:32;13.70;;;9.70;;
76867;SDS011;66168;45.478;11.060;2023-12-04T11:05:08;11.30;;;8.10;;
76867;SDS011;66168;45.478;11.060;2023-12-04T11:07:41;11.70;;;6.90;;
76867;SDS011;66168;45.478;11.060;2023-12-04T11:10:37;11.20;;;7.50;;
76867;SDS011;66168;45.478;11.060;2023-12-04T11:13:22;11.20;;;7.40;;
76867;SDS011;66168;45.478;11.060;2023-12-04T11:16:00;16.60;;;7.90;;
76867;SDS011;66168;45.478;11.060;2023-12-04T11:18:31;21.20;;;9.30;;
76867;SDS011;66168;45.478;11.060;2023-12-04T11:21:08;12.60;;;7.00;;
76867;SDS011;66168;45.478;11.060;2023-12-04T11:23:37;11.90;;;6.40;;
76867;SDS011;66168;45.478;11.060;2023-12-04T11:26:07;8.80;;;5.80;;
76867;SDS011;66168;45.478;11.060;2023-12-04T11:28:37;12.20;;;6.00;;
76867;SDS011;66168;45.478;11.060;2023-12-04T11:31:07;11.30;;;6.90;;
76867;SDS011;66168;45.478;11.060;2023-12-04T11:33:38;10.20;;;6.00;;
76867;SDS011;66168;45.478;11.060;2023-12-04T11:36:09;8.40;;;4.70;;
76867;SDS011;66168;45.478;11.060;2023-12-04T11:38:45;11.80;;;7.90;;
76867;SDS011;66168;45.478;11.060;2023-12-04T11:41:17;11.90;;;6.30;;
76867;SDS011;66168;45.478;11.060;2023-12-04T11:43:52;12.30;;;6.30;;
76867;SDS011;66168;45.478;11.060;2023-12-04T11:46:23;10.90;;;6.40;;
76867;SDS011;66168;45.478;11.060;2023-12-04T11:51:58;12.10;;;7.20;;
76867;SDS011;66168;45.478;11.060;2023-12-04T11:54:26;10.50;;;6.80;;
76867;SDS011;66168;45.478;11.060;2023-12-04T11:59:56;9.00;;;5.80;;
76867;SDS011;66168;45.478;11.060;2023-12-04T12:05:39;8.00;;;5.50;;
76867;SDS011;66168;45.478;11.060;2023-12-04T12:08:08;9.00;;;5.70;;
76867;SDS011;66168;45.478;11.060;2023-12-04T12:10:36;9.30;;;5.70;;
76867;SDS011;66168;45.478;11.060;2023-12-04T12:13:04;4.60;;;3.40;;
76867;SDS011;66168;45.478;11.060;2023-12-04T12:15:32;10.10;;;6.10;;
76867;SDS011;66168;45.478;11.060;2023-12-04T12:18:00;6.70;;;4.60;;
76867;SDS011;66168;45.478;11.060;2023-12-04T12:20:27;9.60;;;6.30;;
76867;SDS011;66168;45.478;11.060;2023-12-04T12:22:54;10.50;;;6.90;;
76867;SDS011;66168;45.478;11.060;2023-12-04T12:25:22;10.70;;;5.80;;
76867;SDS011;66168;45.478;11.060;2023-12-04T12:27:50;11.80;;;6.80;;
76867;SDS011;66168;45.478;11.060;2023-12-04T12:30:17;11.40;;;7.10;;
76867;SDS011;66168;45.478;11.060;2023-12-04T12:32:44;10.90;;;7.10;;
76867;SDS011;66168;45.478;11.060;2023-12-04T12:35:11;9.50;;;6.60;;
76867;SDS011;66168;45.478;11.060;2023-12-04T12:37:39;9.70;;;6.00;;
76867;SDS011;66168;45.478;11.060;2023-12-04T12:40:06;9.90;;;6.20;;
76867;SDS011;66168;45.478;11.060;2023-12-04T12:42:36;9.10;;;5.80;;
76867;SDS011;66168;45.478;11.060;2023-12-04T12:45:09;13.80;;;6.60;;
76867;SDS011;66168;45.478;11.060;2023-12-04T12:47:44;16.40;;;8.00;;
76867;SDS011;66168;45.478;11.060;2023-12-04T12:50:14;10.70;;;7.10;;
76867;SDS011;66168;45.478;11.060;2023-12-04T12:52:42;11.60;;;6.20;;
76867;SDS011;66168;45.478;11.060;2023-12-04T12:55:10;10.50;;;6.00;;
76867;SDS011;66168;45.478;11.060;2023-12-04T12:57:37;9.20;;;5.90;;
76867;SDS011;66168;45.478;11.060;2023-12-04T13:00:06;12.20;;;5.40;;
76867;SDS011;66168;45.478;11.060;2023-12-04T13:02:34;11.00;;;5.50;;
76867;SDS011;66168;45.478;11.060;2023-12-04T13:05:03;11.20;;;6.50;;
76867;SDS011;66168;45.478;11.060;2023-12-04T13:07:31;9.90;;;6.00;;
76867;SDS011;66168;45.478;11.060;2023-12-04T13:09:58;10.10;;;6.10;;
76867;SDS011;66168;45.478;11.060;2023-12-04T13:12:25;9.90;;;6.20;;
76867;SDS011;66168;45.478;11.060;2023-12-04T13:14:52;12.90;;;6.40;;
76867;SDS011;66168;45.478;11.060;2023-12-04T13:17:19;9.40;;;5.40;;
76867;SDS011;66168;45.478;11.060;2023-12-04T13:19:46;9.00;;;5.90;;
76867;SDS011;66168;45.478;11.060;2023-12-04T13:22:14;11.40;;;6.80;;
76867;SDS011;66168;45.478;11.060;2023-12-04T13:24:41;6.70;;;4.40;;
76867;SDS011;66168;45.478;11.060;2023-12-04T13:27:08;7.70;;;4.80;;
76867;SDS011;66168;45.478;11.060;2023-12-04T13:29:35;8.60;;;4.80;;
76867;SDS011;66168;45.478;11.060;2023-12-04T13:32:03;7.00;;;4.80;;
76867;SDS011;66168;45.478;11.060;2023-12-04T13:34:31;8.40;;;4.20;;
76867;SDS011;66168;45.478;11.060;2023-12-04T13:36:58;7.70;;;4.80;;
76867;SDS011;66168;45.478;11.060;2023-12-04T13:39:25;7.30;;;4.40;;
76867;SDS011;66168;45.478;11.060;2023-12-04T13:42:15;9.60;;;6.30;;
76867;SDS011;66168;45.478;11.060;2023-12-04T13:45:01;10.40;;;5.50;;
76867;SDS011;66168;45.478;11.060;2023-12-04T13:47:28;7.70;;;5.10;;
76867;SDS011;66168;45.478;11.060;2023-12-04T13:49:55;8.10;;;5.20;;
76867;SDS011;66168;45.478;11.060;2023-12-04T13:52:25;8.20;;;5.00;;
76867;SDS011;66168;45.478;11.060;2023-12-04T13:54:55;6.40;;;4.50;;
76867;SDS011;66168;45.478;11.060;2023-12-04T13:57:23;7.20;;;5.30;;
76867;SDS011;66168;45.478;11.060;2023-12-04T14:00:13;7.30;;;5.40;;
76867;SDS011;66168;45.478;11.060;2023-12-04T14:02:40;8.70;;;5.10;;
76867;SDS011;66168;45.478;11.060;2023-12-04T14:05:07;7.80;;;5.30;;
76867;SDS011;66168;45.478;11.060;2023-12-04T14:07:34;8.80;;;5.30;;
76867;SDS011;66168;45.478;11.060;2023-12-04T14:10:02;7.00;;;4.80;;
76867;SDS011;66168;45.478;11.060;2023-12-04T14:12:29;7.50;;;4.50;;
76867;SDS011;66168;45.478;11.060;2023-12-04T14:14:56;7.20;;;5.50;;
76867;SDS011;66168;45.478;11.060;2023-12-04T14:17:25;9.60;;;6.00;;
76867;SDS011;66168;45.478;11.060;2023-12-04T14:19:52;9.40;;;5.20;;
76867;SDS011;66168;45.478;11.060;2023-12-04T14:22:19;8.80;;;6.20;;
76867;SDS011;66168;45.478;11.060;2023-12-04T14:24:46;11.30;;;6.80;;
76867;SDS011;66168;45.478;11.060;2023-12-04T14:27:13;12.40;;;7.10;;
76867;SDS011;66168;45.478;11.060;2023-12-04T14:29:40;12.30;;;6.40;;
76867;SDS011;66168;45.478;11.060;2023-12-04T14:32:07;9.20;;;6.10;;
76867;SDS011;66168;45.478;11.060;2023-12-04T14:34:34;9.60;;;5.90;;
76867;SDS011;66168;45.478;11.060;2023-12-04T14:37:01;8.70;;;5.60;;
76867;SDS011;66168;45.478;11.060;2023-12-04T14:39:28;10.40;;;6.60;;
76867;SDS011;66168;45.478;11.060;2023-12-04T14:41:55;10.50;;;6.60;;
76867;SDS011;66168;45.478;11.060;2023-12-04T14:44:22;8.80;;;5.60;;
76867;SDS011;66168;45.478;11.060;2023-12-04T14:46:49;9.80;;;5.20;;